createdAt,value
2018-12-04T00:01:46.494Z,10.50
2018-12-04T00:04:15.401Z,10.50
2018-12-04T00:06:44.300Z,10.50
2018-12-04T00:09:13.252Z,10.50
2018-12-04T00:11:42.191Z,10.50
2018-12-04T00:14:11.121Z,10.60
2018-12-04T00:16:40.101Z,10.60
2018-12-04T00:19:09.148Z,10.60
2018-12-04T00:21:38.097Z,10.60
2018-12-04T00:24:07.076Z,10.60
2018-12-04T00:26:35.945Z,10.60
2018-12-04T00:29:05.018Z,10.60
2018-12-04T00:31:33.955Z,10.60
2018-12-04T00:34:02.890Z,10.60
2018-12-04T00:36:31.770Z,10.70
2018-12-04T00:39:01.801Z,10.70
2018-12-04T00:41:30.852Z,10.70
2018-12-04T00:43:59.759Z,10.70
2018-12-04T00:46:28.650Z,10.70
2018-12-04T00:48:57.513Z,10.70
2018-12-04T00:51:26.389Z,10.70
2018-12-04T00:53:55.331Z,10.70
2018-12-04T00:56:24.218Z,10.70
2018-12-04T00:58:53.117Z,10.70
2018-12-04T01:01:22.015Z,10.60
2018-12-04T01:03:51.036Z,10.60
2018-12-04T01:06:19.944Z,10.60
2018-12-04T01:08:48.817Z,10.60
2018-12-04T01:11:17.713Z,10.60
2018-12-04T01:13:46.656Z,10.60
2018-12-04T01:16:15.539Z,10.50
2018-12-04T01:18:44.449Z,10.50
2018-12-04T01:21:13.383Z,10.40
2018-12-04T01:23:42.494Z,10.30
2018-12-04T01:26:11.435Z,10.20
2018-12-04T01:28:40.342Z,10.20
2018-12-04T01:31:09.231Z,10.10
2018-12-04T01:33:38.157Z,10.10
2018-12-04T01:36:07.151Z,10.00
2018-12-04T01:38:36.133Z,10.00
2018-12-04T01:41:05.118Z,10.00
2018-12-04T01:43:34.105Z,10.00
2018-12-04T01:46:03.090Z,10.00
2018-12-04T01:48:32.067Z,10.00
2018-12-04T01:51:01.074Z,10.00
2018-12-04T01:53:30.009Z,9.90
2018-12-04T01:55:58.913Z,9.90
2018-12-04T01:58:27.914Z,9.80
2018-12-04T02:00:56.961Z,9.90
2018-12-04T02:03:25.905Z,9.90
2018-12-04T02:05:54.793Z,9.90
2018-12-04T02:08:23.740Z,9.90
2018-12-04T02:10:52.653Z,9.90
2018-12-04T02:13:21.600Z,10.00
2018-12-04T02:15:50.497Z,9.90
2018-12-04T02:18:19.424Z,10.00
2018-12-04T02:23:21.688Z,10.00
2018-12-04T02:25:50.621Z,10.10
2018-12-04T02:28:19.554Z,10.10
2018-12-04T02:30:48.572Z,10.10
2018-12-04T02:33:17.462Z,10.10
2018-12-04T02:35:47.360Z,10.10
2018-12-04T02:38:16.422Z,10.00
2018-12-04T02:40:45.440Z,10.10
2018-12-04T02:43:14.394Z,10.00
2018-12-04T02:45:43.427Z,10.00
2018-12-04T02:48:12.433Z,10.00
2018-12-04T02:50:41.354Z,10.00
2018-12-04T02:53:10.366Z,10.00
2018-12-04T02:55:39.413Z,10.00
2018-12-04T02:58:08.357Z,10.00
2018-12-04T03:00:37.383Z,10.00
2018-12-04T03:03:06.385Z,9.90
2018-12-04T03:05:35.334Z,9.90
2018-12-04T03:08:04.292Z,9.90
2018-12-04T03:10:33.173Z,9.90
2018-12-04T03:13:02.089Z,9.90
2018-12-04T03:15:31.068Z,9.90
2018-12-04T03:18:00.071Z,9.90
2018-12-04T03:20:29.020Z,9.90
2018-12-04T03:22:57.925Z,9.90
2018-12-04T03:25:26.813Z,9.90
2018-12-04T03:27:55.749Z,9.90
2018-12-04T03:30:26.608Z,9.90
2018-12-04T03:32:55.602Z,9.90
2018-12-04T03:35:24.546Z,9.90
2018-12-04T03:37:53.461Z,9.90
2018-12-04T03:40:22.426Z,10.00
2018-12-04T03:42:51.399Z,10.00
2018-12-04T03:45:20.291Z,10.00
2018-12-04T03:47:49.260Z,10.10
2018-12-04T03:50:18.174Z,10.10
2018-12-04T03:52:47.052Z,10.10
2018-12-04T03:55:15.923Z,10.10
2018-12-04T03:57:44.812Z,10.10
2018-12-04T04:00:13.793Z,10.10
2018-12-04T04:02:42.708Z,10.10
2018-12-04T04:05:11.626Z,10.10
2018-12-04T04:07:40.504Z,10.10
2018-12-04T04:10:09.521Z,10.10
2018-12-04T04:12:38.405Z,10.10
2018-12-04T04:15:07.677Z,10.10
2018-12-04T04:17:36.574Z,10.00
2018-12-04T04:20:05.619Z,10.10
2018-12-04T04:22:34.625Z,10.00
2018-12-04T04:25:03.673Z,10.00
2018-12-04T04:27:32.614Z,10.00
2018-12-04T04:30:01.535Z,9.90
2018-12-04T04:32:30.528Z,9.90
2018-12-04T04:35:00.589Z,9.90
2018-12-04T04:37:29.445Z,9.90
2018-12-04T04:39:58.389Z,9.90
2018-12-04T04:42:27.304Z,9.90
2018-12-04T04:44:56.274Z,9.90
2018-12-04T04:47:25.200Z,9.90
2018-12-04T04:49:54.154Z,9.90
2018-12-04T04:52:23.129Z,9.90
2018-12-04T04:54:52.258Z,9.90
2018-12-04T04:57:21.270Z,9.90
2018-12-04T04:59:50.192Z,9.80
2018-12-04T05:02:19.064Z,9.80
2018-12-04T05:04:48.026Z,9.90
2018-12-04T05:07:16.951Z,9.90
2018-12-04T05:09:45.869Z,9.90
2018-12-04T05:12:14.765Z,9.90
2018-12-04T05:14:43.711Z,9.90
2018-12-04T05:17:12.607Z,9.90
2018-12-04T05:19:41.572Z,9.90
2018-12-04T05:22:10.605Z,9.90
2018-12-04T05:24:39.497Z,9.90
2018-12-04T05:27:08.406Z,9.90
2018-12-04T05:29:37.396Z,10.00
2018-12-04T05:32:06.416Z,10.00
2018-12-04T05:34:35.414Z,10.00
2018-12-04T05:37:05.663Z,10.00
2018-12-04T05:39:34.641Z,10.00
2018-12-04T05:42:03.658Z,9.90
2018-12-04T05:44:32.613Z,10.00
2018-12-04T05:47:01.525Z,9.90
2018-12-04T05:49:30.425Z,9.90
2018-12-04T05:51:59.451Z,9.90
2018-12-04T05:54:28.393Z,9.80
2018-12-04T05:56:57.316Z,9.80
2018-12-04T05:59:26.264Z,9.70
2018-12-04T06:01:55.140Z,9.70
2018-12-04T06:04:24.273Z,9.70
2018-12-04T06:06:53.361Z,9.70
2018-12-04T06:09:23.252Z,9.60
2018-12-04T06:11:52.145Z,9.60
2018-12-04T06:14:21.112Z,9.60
2018-12-04T06:16:50.069Z,9.60
2018-12-04T06:19:19.044Z,9.60
2018-12-04T06:21:47.996Z,9.50
2018-12-04T06:24:16.872Z,9.50
2018-12-04T06:26:45.833Z,9.40
2018-12-04T06:29:14.708Z,9.40
2018-12-04T06:31:43.633Z,9.40
2018-12-04T06:34:12.678Z,9.30
2018-12-04T06:36:41.584Z,9.30
2018-12-04T06:39:10.468Z,9.20
2018-12-04T06:41:39.348Z,9.10
2018-12-04T06:44:08.229Z,9.10
2018-12-04T06:46:37.121Z,9.00
2018-12-04T06:49:06.017Z,9.10
2018-12-04T06:51:35.112Z,9.10
2018-12-04T06:54:04.187Z,9.00
2018-12-04T06:56:33.101Z,9.10
2018-12-04T06:59:02.104Z,9.00
2018-12-04T07:01:30.992Z,9.00
2018-12-04T07:04:00.033Z,9.00
2018-12-04T07:06:28.964Z,9.00
2018-12-04T07:08:57.885Z,9.00
2018-12-04T07:11:26.816Z,9.00
2018-12-04T07:13:55.725Z,9.00
2018-12-04T07:16:24.677Z,9.10
2018-12-04T07:18:53.584Z,9.10
2018-12-04T07:21:22.505Z,9.10
2018-12-04T07:23:51.810Z,9.10
2018-12-04T07:26:20.777Z,9.10
2018-12-04T07:28:49.788Z,9.20
2018-12-04T07:31:18.819Z,9.20
2018-12-04T07:33:47.825Z,9.20
2018-12-04T07:36:16.782Z,9.30
2018-12-04T07:38:45.774Z,9.30
2018-12-04T07:41:14.690Z,9.30
2018-12-04T07:43:43.621Z,9.30
2018-12-04T07:46:12.519Z,9.30
2018-12-04T07:48:41.532Z,9.30
2018-12-04T07:51:10.544Z,9.30
2018-12-04T07:53:39.482Z,9.30
2018-12-04T07:56:08.432Z,9.30
2018-12-04T07:58:37.337Z,9.30
2018-12-04T08:01:06.253Z,9.30
2018-12-04T08:03:35.195Z,9.40
2018-12-04T08:06:08.485Z,9.40
2018-12-04T08:08:37.399Z,9.40
2018-12-04T08:11:06.456Z,9.40
2018-12-04T08:13:35.330Z,9.40
2018-12-04T08:16:04.361Z,9.40
2018-12-04T08:18:33.350Z,9.40
2018-12-04T08:21:03.428Z,9.40
2018-12-04T08:23:32.322Z,9.40
2018-12-04T08:26:01.223Z,9.50
2018-12-04T08:28:30.185Z,9.50
2018-12-04T08:30:59.135Z,9.50
2018-12-04T08:33:28.042Z,9.60
2018-12-04T08:35:56.956Z,9.60
2018-12-04T08:38:25.831Z,9.60
2018-12-04T08:40:54.826Z,9.60
2018-12-04T08:43:23.724Z,9.60
2018-12-04T08:45:53.089Z,9.60
2018-12-04T08:48:22.060Z,9.60
2018-12-04T08:50:51.049Z,9.70
2018-12-04T08:53:20.019Z,9.80
2018-12-04T08:55:48.954Z,9.80
2018-12-04T08:58:17.921Z,9.90
2018-12-04T09:00:46.801Z,9.90
2018-12-04T09:03:15.763Z,10.00
2018-12-04T09:05:44.778Z,10.10
2018-12-04T09:08:13.769Z,10.10
2018-12-04T09:10:42.696Z,10.20
2018-12-04T09:13:11.567Z,10.20
2018-12-04T09:15:41.605Z,10.30
2018-12-04T09:18:10.488Z,10.30
2018-12-04T09:20:39.467Z,10.30
2018-12-04T09:23:08.383Z,10.30
2018-12-04T09:25:37.365Z,10.20
2018-12-04T09:28:06.325Z,10.20
2018-12-04T09:30:35.249Z,10.20
2018-12-04T09:33:04.236Z,10.10
2018-12-04T09:35:33.134Z,10.10
2018-12-04T09:38:02.043Z,10.10
2018-12-04T09:40:30.969Z,10.10
2018-12-04T09:43:04.208Z,10.10
2018-12-04T09:45:30.822Z,10.20
2018-12-04T09:47:59.748Z,10.30
2018-12-04T09:50:28.677Z,10.50
2018-12-04T09:52:57.692Z,10.70
2018-12-04T09:55:26.580Z,11.10
2018-12-04T09:57:55.511Z,11.50
2018-12-04T10:00:24.385Z,11.90
2018-12-04T10:02:53.300Z,12.20
2018-12-04T10:05:22.356Z,12.50
2018-12-04T10:07:51.252Z,12.70
2018-12-04T10:10:20.149Z,13.00
2018-12-04T10:12:49.089Z,13.10
2018-12-04T10:15:17.989Z,13.00
2018-12-04T10:17:46.853Z,13.00
2018-12-04T10:20:15.781Z,12.90
2018-12-04T10:22:44.676Z,12.70
2018-12-04T10:25:13.556Z,12.40
2018-12-04T10:27:42.424Z,12.10
2018-12-04T10:30:11.405Z,11.90
2018-12-04T10:32:40.298Z,11.70
2018-12-04T10:35:09.407Z,11.60
2018-12-04T10:37:38.280Z,11.60
2018-12-04T10:40:08.080Z,11.50
2018-12-04T10:42:37.049Z,11.40
2018-12-04T10:45:06.659Z,11.40
2018-12-04T10:47:35.618Z,11.40
2018-12-04T10:50:06.640Z,11.30
2018-12-04T10:52:35.661Z,11.30
2018-12-04T10:55:05.644Z,11.30
2018-12-04T10:57:34.577Z,11.30
2018-12-04T11:00:05.954Z,11.50
2018-12-04T11:02:39.181Z,11.50
2018-12-04T11:05:08.154Z,11.70
2018-12-04T11:07:37.061Z,11.80
2018-12-04T11:10:06.264Z,11.80
2018-12-04T11:12:35.212Z,12.10
2018-12-04T11:15:04.576Z,12.40
2018-12-04T11:17:33.489Z,12.80
2018-12-04T11:20:02.411Z,12.90
2018-12-04T11:22:31.294Z,12.90
2018-12-04T11:25:01.203Z,12.70
2018-12-04T11:27:31.286Z,12.60
2018-12-04T11:30:00.161Z,12.50
2018-12-04T11:32:29.079Z,12.40
2018-12-04T11:34:58.037Z,12.40
2018-12-04T11:37:26.933Z,12.40
2018-12-04T11:39:55.849Z,12.30
2018-12-04T11:42:24.747Z,12.30
2018-12-04T11:44:53.699Z,12.20
2018-12-04T11:47:22.565Z,12.10
2018-12-04T11:49:51.499Z,12.10
2018-12-04T11:52:20.459Z,12.10
2018-12-04T11:54:49.614Z,12.10
2018-12-04T11:57:19.145Z,12.10
2018-12-04T11:59:48.121Z,12.10
2018-12-04T12:02:16.980Z,12.20
2018-12-04T12:04:45.872Z,12.30
2018-12-04T12:07:20.570Z,12.40
2018-12-04T12:09:47.937Z,12.50
2018-12-04T12:12:16.812Z,12.90
2018-12-04T12:14:45.700Z,13.90
2018-12-04T12:17:14.717Z,15.20
2018-12-04T12:19:43.596Z,16.40
2018-12-04T12:22:12.468Z,17.20
2018-12-04T12:24:41.336Z,17.00
2018-12-04T12:27:10.220Z,16.60
2018-12-04T12:29:39.162Z,16.10
2018-12-04T12:32:08.512Z,15.70
2018-12-04T12:34:37.432Z,15.30
2018-12-04T12:37:06.389Z,14.90
2018-12-04T12:39:35.285Z,14.50
2018-12-04T12:42:04.282Z,14.20
2018-12-04T12:44:33.206Z,13.90
2018-12-04T12:47:02.171Z,13.70
2018-12-04T12:49:31.071Z,13.60
2018-12-04T12:52:00.049Z,13.50
2018-12-04T12:54:30.053Z,13.30
2018-12-04T12:56:59.119Z,13.20
2018-12-04T12:59:28.043Z,13.10
2018-12-04T13:01:56.981Z,12.90
2018-12-04T13:04:25.872Z,12.80
2018-12-04T13:06:54.754Z,12.70
2018-12-04T13:09:23.670Z,12.80
2018-12-04T13:11:52.906Z,12.80
2018-12-04T13:14:21.777Z,12.90
2018-12-04T13:16:50.669Z,12.90
2018-12-04T13:19:19.871Z,12.80
2018-12-04T13:21:48.807Z,12.70
2018-12-04T13:24:17.727Z,12.60
2018-12-04T13:26:46.647Z,12.50
2018-12-04T13:29:15.613Z,12.40
2018-12-04T13:31:44.501Z,12.40
2018-12-04T13:34:13.527Z,12.40
2018-12-04T13:36:42.524Z,12.30
2018-12-04T13:39:11.597Z,12.30
2018-12-04T13:41:40.627Z,12.20
2018-12-04T13:44:09.577Z,12.10
2018-12-04T13:46:38.550Z,12.10
2018-12-04T13:49:07.561Z,12.00
2018-12-04T13:51:36.452Z,12.00
2018-12-04T13:54:05.435Z,11.90
2018-12-04T13:56:34.592Z,12.00
2018-12-04T13:59:03.461Z,12.10
2018-12-04T14:01:32.341Z,12.10
2018-12-04T14:04:01.876Z,12.20
2018-12-04T14:06:30.854Z,12.10
2018-12-04T14:08:59.849Z,12.10
2018-12-04T14:11:28.815Z,12.00
2018-12-04T14:13:57.901Z,12.00
2018-12-04T14:16:26.876Z,12.00
2018-12-04T14:18:56.081Z,11.90
2018-12-04T14:21:25.050Z,11.90
2018-12-04T14:23:54.192Z,11.80
2018-12-04T14:26:23.258Z,11.80
2018-12-04T14:28:52.148Z,11.70
2018-12-04T14:31:21.039Z,11.70
2018-12-04T14:33:50.257Z,11.70
2018-12-04T14:36:19.402Z,11.70
2018-12-04T14:38:48.450Z,11.60
2018-12-04T14:41:17.513Z,11.60
2018-12-04T14:43:46.411Z,11.60
2018-12-04T14:46:15.350Z,11.60
2018-12-04T14:48:44.290Z,11.60
2018-12-04T14:51:13.368Z,11.50
2018-12-04T14:53:42.309Z,11.50
2018-12-04T14:56:11.485Z,11.40
2018-12-04T14:58:40.457Z,11.40
2018-12-04T15:01:09.468Z,11.30
2018-12-04T15:03:38.425Z,11.30
2018-12-04T15:06:07.340Z,11.20
2018-12-04T15:08:36.226Z,11.20
2018-12-04T15:11:05.228Z,11.10
2018-12-04T15:13:35.217Z,11.10
2018-12-04T15:16:04.393Z,11.00
2018-12-04T15:18:33.352Z,11.00
2018-12-04T15:21:02.292Z,10.90
2018-12-04T15:23:31.186Z,10.90
2018-12-04T15:26:00.162Z,10.90
2018-12-04T15:28:29.164Z,10.90
2018-12-04T15:30:58.182Z,10.80
2018-12-04T15:33:27.165Z,10.90
2018-12-04T15:35:57.031Z,10.90
2018-12-04T15:38:25.981Z,10.80
2018-12-04T15:40:54.908Z,10.80
2018-12-04T15:43:23.830Z,10.70
2018-12-04T15:45:52.796Z,10.60
2018-12-04T15:48:21.693Z,10.60
2018-12-04T15:50:50.581Z,10.60
2018-12-04T15:53:19.614Z,10.50
2018-12-04T15:55:48.585Z,10.50
2018-12-04T15:58:17.466Z,10.50
2018-12-04T16:00:46.398Z,10.50
2018-12-04T16:03:15.311Z,10.40
2018-12-04T16:05:44.240Z,10.40
2018-12-04T16:08:13.153Z,10.40
2018-12-04T16:10:42.057Z,10.40
2018-12-04T16:13:11.022Z,10.40
2018-12-04T16:15:39.913Z,10.40
2018-12-04T16:18:08.941Z,10.40
2018-12-04T16:20:37.843Z,10.40
2018-12-04T16:23:06.747Z,10.40
2018-12-04T16:25:35.677Z,10.40
2018-12-04T16:28:04.774Z,10.40
2018-12-04T16:30:33.681Z,10.40
2018-12-04T16:33:02.564Z,10.40
2018-12-04T16:35:31.449Z,10.40
2018-12-04T16:38:00.449Z,10.40
2018-12-04T16:40:29.356Z,10.40
2018-12-04T16:42:58.293Z,10.50
2018-12-04T16:45:27.365Z,10.50
2018-12-04T16:47:56.244Z,10.50
2018-12-04T16:50:25.347Z,10.50
2018-12-04T16:52:54.382Z,10.50
2018-12-04T16:55:23.527Z,10.40
2018-12-04T16:57:52.457Z,10.30
2018-12-04T17:00:21.382Z,10.20
2018-12-04T17:02:50.301Z,10.00
2018-12-04T17:05:19.310Z,9.90
2018-12-04T17:07:48.452Z,9.70
2018-12-04T17:10:22.399Z,9.70
2018-12-04T17:12:48.189Z,9.60
2018-12-04T17:15:17.070Z,9.60
2018-12-04T17:17:45.945Z,9.50
2018-12-04T17:20:14.814Z,9.50
2018-12-04T17:22:43.688Z,9.40
2018-12-04T17:25:12.707Z,9.40
2018-12-04T17:27:41.625Z,9.30
2018-12-04T17:30:11.590Z,9.30
2018-12-04T17:32:40.595Z,9.20
2018-12-04T17:35:09.539Z,9.10
2018-12-04T17:37:38.504Z,9.10
2018-12-04T17:40:07.972Z,9.00
2018-12-04T17:42:36.966Z,9.00
2018-12-04T17:45:06.441Z,9.00
2018-12-04T17:47:35.333Z,9.00
2018-12-04T17:50:05.193Z,9.00
2018-12-04T17:52:34.106Z,9.00
2018-12-04T17:55:03.159Z,8.90
2018-12-04T17:57:32.996Z,8.90
2018-12-04T18:00:01.892Z,8.90
2018-12-04T18:02:32.797Z,8.80
2018-12-04T18:05:01.837Z,8.80
2018-12-04T18:07:32.720Z,8.80
2018-12-04T18:10:01.685Z,8.90
2018-12-04T18:12:30.640Z,8.90
2018-12-04T18:15:01.717Z,8.90
2018-12-04T18:17:31.734Z,8.90
2018-12-04T18:25:12.761Z,8.90
2018-12-04T18:27:41.654Z,8.90
2018-12-04T18:30:10.736Z,8.90
2018-12-04T18:32:39.631Z,8.90
2018-12-04T18:35:08.658Z,8.90
2018-12-04T18:37:37.652Z,8.90
2018-12-04T18:40:06.949Z,8.90
2018-12-04T18:42:35.847Z,8.90
2018-12-04T18:45:06.330Z,8.90
2018-12-04T18:47:35.201Z,8.90
2018-12-04T18:50:06.082Z,8.90
2018-12-04T18:52:35.211Z,8.80
2018-12-04T18:55:04.433Z,8.80
2018-12-04T18:57:33.450Z,8.80
2018-12-04T19:00:02.394Z,8.70
2018-12-04T19:02:31.373Z,8.70
2018-12-04T19:05:00.348Z,8.70
2018-12-04T19:07:29.218Z,8.60
2018-12-04T19:09:58.273Z,8.70
2018-12-04T19:12:27.347Z,8.70
2018-12-04T19:14:56.308Z,8.70
2018-12-04T19:17:25.277Z,8.70
2018-12-04T19:19:54.149Z,8.70
2018-12-04T19:22:23.160Z,8.70
2018-12-04T19:24:52.450Z,8.70
2018-12-04T19:27:21.469Z,8.70
2018-12-04T19:29:50.419Z,8.70
2018-12-04T19:32:19.426Z,8.70
2018-12-04T19:34:48.325Z,8.70
2018-12-04T19:37:17.331Z,8.70
2018-12-04T19:39:46.301Z,8.70
2018-12-04T19:42:16.302Z,8.70
2018-12-04T19:44:45.266Z,8.70
2018-12-04T19:47:14.298Z,8.70
2018-12-04T19:49:43.231Z,8.70
2018-12-04T19:52:12.166Z,8.70
2018-12-04T19:54:41.126Z,8.70
2018-12-04T19:57:10.112Z,8.70
2018-12-04T19:59:39.055Z,8.70
2018-12-04T20:02:07.976Z,8.70
2018-12-04T20:04:36.963Z,8.70
2018-12-04T20:07:05.988Z,8.70
2018-12-04T20:09:34.979Z,8.70
2018-12-04T20:12:04.053Z,8.70
2018-12-04T20:14:33.010Z,8.70
2018-12-04T20:17:01.974Z,8.70
2018-12-04T20:19:30.932Z,8.70
2018-12-04T20:21:59.817Z,8.80
2018-12-04T20:24:28.702Z,8.80
2018-12-04T20:26:57.598Z,8.80
2018-12-04T20:29:26.584Z,8.80
2018-12-04T20:31:55.512Z,8.70
2018-12-04T20:34:24.392Z,8.80
2018-12-04T20:36:53.319Z,8.80
2018-12-04T20:39:22.276Z,8.80
2018-12-04T20:41:51.149Z,8.80
2018-12-04T20:44:20.112Z,8.80
2018-12-04T20:46:49.016Z,8.80
2018-12-04T20:49:19.005Z,8.80
2018-12-04T20:51:47.854Z,8.80
2018-12-04T20:54:17.037Z,8.80
2018-12-04T20:56:46.013Z,8.80
2018-12-04T20:59:15.048Z,8.80
2018-12-04T21:01:44.136Z,8.80
2018-12-04T21:04:13.125Z,8.80
2018-12-04T21:06:41.986Z,8.80
2018-12-04T21:09:10.921Z,8.70
2018-12-04T21:11:39.880Z,8.80
2018-12-04T21:14:08.781Z,8.80
2018-12-04T21:16:38.883Z,8.80
2018-12-04T21:19:07.781Z,8.80
2018-12-04T21:21:36.670Z,8.80
2018-12-04T21:24:05.549Z,8.80
2018-12-04T21:26:37.031Z,8.80
2018-12-04T21:29:10.560Z,8.80
2018-12-04T21:31:45.357Z,8.80
2018-12-04T21:34:19.553Z,8.80
2018-12-04T21:36:53.927Z,8.80
2018-12-04T21:39:28.057Z,8.70
2018-12-04T21:41:59.313Z,8.70
2018-12-04T21:44:33.620Z,8.70
2018-12-04T21:47:07.871Z,8.70
2018-12-04T21:49:36.948Z,8.70
2018-12-04T21:52:06.885Z,8.70
2018-12-04T21:54:35.829Z,8.60
2018-12-04T21:57:04.775Z,8.60
2018-12-04T21:59:33.807Z,8.50
2018-12-04T22:02:02.745Z,8.50
2018-12-04T22:04:31.912Z,8.50
2018-12-04T22:07:00.793Z,8.50
2018-12-04T22:09:29.974Z,8.60
2018-12-04T22:11:59.142Z,8.50
2018-12-04T22:14:28.622Z,8.50
2018-12-04T22:16:58.090Z,8.40
2018-12-04T22:19:27.445Z,8.40
2018-12-04T22:21:56.406Z,8.50
2018-12-04T22:24:25.512Z,8.50
2018-12-04T22:26:54.403Z,8.50
2018-12-04T22:29:23.286Z,8.50
2018-12-04T22:31:52.189Z,8.50
2018-12-04T22:34:21.069Z,8.50
2018-12-04T22:36:50.016Z,8.50
2018-12-04T22:39:18.949Z,8.50
2018-12-04T22:41:48.006Z,8.50
2018-12-04T22:44:16.940Z,8.50
2018-12-04T22:46:45.918Z,8.50
2018-12-04T22:49:14.946Z,8.40
2018-12-04T22:51:43.913Z,8.40
2018-12-04T22:54:12.805Z,8.40
2018-12-04T22:56:41.707Z,8.40
2018-12-04T22:59:10.706Z,8.50
2018-12-04T23:01:40.784Z,8.30
2018-12-04T23:04:10.973Z,8.40
2018-12-04T23:06:39.893Z,8.40
2018-12-04T23:09:10.666Z,8.40
2018-12-04T23:11:41.141Z,8.30
2018-12-04T23:14:10.049Z,8.40
2018-12-04T23:16:38.949Z,8.40
2018-12-04T23:19:08.953Z,8.40
2018-12-04T23:21:37.936Z,8.40
2018-12-04T23:24:07.080Z,8.40
2018-12-04T23:26:35.952Z,8.40
2018-12-04T23:29:04.980Z,8.40
2018-12-04T23:31:33.962Z,8.40
2018-12-04T23:34:03.133Z,8.40
2018-12-04T23:36:32.012Z,8.30
2018-12-04T23:39:00.893Z,8.30
2018-12-04T23:41:29.867Z,8.30
2018-12-04T23:43:58.751Z,8.30
2018-12-04T23:46:27.806Z,8.20
2018-12-04T23:48:56.737Z,8.20
2018-12-04T23:51:25.678Z,8.20
2018-12-04T23:53:54.545Z,8.20
2018-12-04T23:56:23.440Z,8.10
2018-12-04T23:58:52.363Z,8.00
